• vieta
  • image
  • image
  • image

Šiandien

Sekmadienis, 21 Rugsėjis 2014

Orų prognozė

Šiauliai 17 °C
   

Orų prognozė aviacijai

[source: ADDS]
METAR
EYSA 211350Z 16008KT 120V190 9999 SCT029 17/12 Q1008 =
TAF
TAF EYSA 211400Z 2115/2124 17010KT 8000 BKN025 TEMPO 2118/2121 4900 SHRA SCT010 BKN015CB BECMG 2121/2123 4900 RA BR OVC015 =
SR / SS: 04:12 / 16:29 UTC (EYSA 2014-09-21)

Lankytojai

Mes turime 8 svečius online

tic logo lt